Date,TemperatureHighF,TemperatureAvgF,TemperatureLowF,DewpointHighF,DewpointAvgF,DewpointLowF,HumidityHigh,HumidityAvg,HumidityLow,PressureMaxIn,PressureMinIn,WindSpeedMaxMPH,WindSpeedAvgMPH,GustSpeedMaxMPH,PrecipitationSumIn
2013-1-1,40,36,34,36,33,32,93,90,83,30.47,30.36,1,0,0,0.00
2013-1-2,44,35,28,36,31,26,94,88,72,30.35,30.19,5,1,8,0.01
2013-1-3,41,33,25,35,30,24,94,87,72,30.19,30.05,7,1,7,0.01
2013-1-4,46,40,32,42,37,30,93,90,83,30.28,30.08,3,1,3,0.00
2013-1-5,47,43,39,43,40,37,95,90,81,30.16,30.03,15,4,15,0.02
2013-1-6,45,39,33,41,36,31,94,91,86,30.13,29.90,3,0,4,0.00
2013-1-7,51,44,38,46,41,37,95,88,71,30.12,29.75,17,5,22,0.08
2013-1-8,47,43,40,45,41,38,94,91,83,30.13,29.62,11,2,12,0.30
2013-1-9,47,41,30,45,37,28,94,87,78,29.92,29.65,19,6,19,0.18
2013-1-10,41,36,28,36,32,26,93,87,76,30.14,29.92,10,3,10,0.07
2013-1-11,39,34,28,32,25,21,89,72,51,30.32,30.14,7,2,8,0.00
2013-1-12,38,30,26,31,25,22,92,81,67,30.44,30.31,5,1,12,0.01
2013-1-13,37,31,25,31,27,22,90,85,76,30.48,30.42,4,1,7,0.00
2013-1-14,40,36,33,37,33,30,92,90,87,30.55,30.44,3,0,3,0.00
2013-1-15,42,36,31,37,33,29,94,88,76,30.70,30.56,2,1,4,0.00
2013-1-16,41,38,36,35,34,32,90,86,81,30.68,30.52,4,1,4,0.00
2013-1-17,41,36,30,37,34,28,94,90,87,30.54,30.27,3,1,4,0.00
2013-1-18,40,37,34,37,35,32,95,93,89,30.34,30.25,3,1,3,0.00
2013-1-19,40,37,30,36,34,28,93,90,85,30.39,30.34,3,1,5,0.00
2013-1-20,42,36,30,38,34,28,95,92,86,30.39,30.28,4,1,5,0.00
2013-1-21,39,36,33,37,35,31,96,94,91,30.27,30.13,3,1,6,0.00
2013-1-22,38,36,34,35,34,33,94,92,88,30.13,29.90,3,1,3,0.00
2013-1-23,43,40,36,40,38,34,94,92,90,30.09,29.81,7,2,7,0.06
2013-1-24,41,37,30,39,35,29,95,92,89,30.17,29.96,2,0,4,0.00
2013-1-25,48,38,32,42,35,30,94,91,74,30.03,29.87,6,1,6,0.00
2013-1-26,45,39,32,42,37,30,95,92,85,30.01,29.82,3,1,3,0.08
2013-1-27,44,39,35,39,37,33,94,91,85,30.02,29.96,13,1,13,0.06
2013-1-28,46,44,42,40,38,36,91,81,72,30.05,29.98,16,10,21,0.07
2013-1-29,48,46,44,44,43,40,94,88,76,30.30,30.06,19,6,29,0.07
2013-1-30,50,46,44,47,44,42,96,94,88,30.36,30.29,4,1,5,0.17
2013-1-31,50,46,42,47,44,41,96,93,89,30.36,30.27,7,3,11,0.01